sensor_id;sensor_type;location;lat;lon;timestamp;temperature;humidity
24618;DHT22;12762;51.730;5.356;2022-11-14T00:01:10;5.60;74.80
24618;DHT22;12762;51.730;5.356;2022-11-14T00:03:38;5.60;74.80
24618;DHT22;12762;51.730;5.356;2022-11-14T00:06:06;5.60;74.80
24618;DHT22;12762;51.730;5.356;2022-11-14T00:08:36;5.50;74.80
24618;DHT22;12762;51.730;5.356;2022-11-14T00:11:05;5.50;74.80
24618;DHT22;12762;51.730;5.356;2022-11-14T00:13:32;5.50;74.80
24618;DHT22;12762;51.730;5.356;2022-11-14T00:15:59;5.50;74.90
24618;DHT22;12762;51.730;5.356;2022-11-14T00:18:25;5.50;74.90
24618;DHT22;12762;51.730;5.356;2022-11-14T00:20:53;5.50;75.10
24618;DHT22;12762;51.730;5.356;2022-11-14T00:23:23;5.50;75.10
24618;DHT22;12762;51.730;5.356;2022-11-14T00:25:50;5.50;75.20
24618;DHT22;12762;51.730;5.356;2022-11-14T00:28:16;5.40;75.00
24618;DHT22;12762;51.730;5.356;2022-11-14T00:30:47;5.50;75.20
24618;DHT22;12762;51.730;5.356;2022-11-14T00:33:14;5.50;75.20
24618;DHT22;12762;51.730;5.356;2022-11-14T00:35:53;5.50;75.20
24618;DHT22;12762;51.730;5.356;2022-11-14T00:38:20;5.50;75.30
24618;DHT22;12762;51.730;5.356;2022-11-14T00:40:47;5.50;75.20
24618;DHT22;12762;51.730;5.356;2022-11-14T00:43:14;5.50;75.20
24618;DHT22;12762;51.730;5.356;2022-11-14T00:45:44;5.50;75.20
24618;DHT22;12762;51.730;5.356;2022-11-14T00:48:12;5.50;75.30
24618;DHT22;12762;51.730;5.356;2022-11-14T00:50:39;5.50;75.30
24618;DHT22;12762;51.730;5.356;2022-11-14T00:53:06;5.50;75.30
24618;DHT22;12762;51.730;5.356;2022-11-14T00:55:33;5.50;75.30
24618;DHT22;12762;51.730;5.356;2022-11-14T00:58:00;5.50;75.30
24618;DHT22;12762;51.730;5.356;2022-11-14T01:00:29;5.50;75.30
24618;DHT22;12762;51.730;5.356;2022-11-14T01:02:56;5.50;75.30
24618;DHT22;12762;51.730;5.356;2022-11-14T01:05:24;5.50;75.30
24618;DHT22;12762;51.730;5.356;2022-11-14T01:07:51;5.50;75.40
24618;DHT22;12762;51.730;5.356;2022-11-14T01:10:18;5.50;75.40
24618;DHT22;12762;51.730;5.356;2022-11-14T01:12:45;5.40;75.30
24618;DHT22;12762;51.730;5.356;2022-11-14T01:15:12;5.40;75.30
24618;DHT22;12762;51.730;5.356;2022-11-14T01:17:39;5.40;75.40
24618;DHT22;12762;51.730;5.356;2022-11-14T01:20:07;5.40;75.30
24618;DHT22;12762;51.730;5.356;2022-11-14T01:22:33;5.40;75.30
24618;DHT22;12762;51.730;5.356;2022-11-14T01:25:00;5.40;75.40
24618;DHT22;12762;51.730;5.356;2022-11-14T01:27:32;5.40;75.40
24618;DHT22;12762;51.730;5.356;2022-11-14T01:29:59;5.40;75.50
24618;DHT22;12762;51.730;5.356;2022-11-14T01:32:26;5.30;75.40
24618;DHT22;12762;51.730;5.356;2022-11-14T01:34:53;5.30;75.40
24618;DHT22;12762;51.730;5.356;2022-11-14T01:37:20;5.30;75.40
24618;DHT22;12762;51.730;5.356;2022-11-14T01:39:47;5.30;75.50
24618;DHT22;12762;51.730;5.356;2022-11-14T01:42:13;5.30;75.50
24618;DHT22;12762;51.730;5.356;2022-11-14T01:44:48;5.30;75.60
24618;DHT22;12762;51.730;5.356;2022-11-14T01:47:22;5.30;75.60
24618;DHT22;12762;51.730;5.356;2022-11-14T01:49:52;5.20;75.50
24618;DHT22;12762;51.730;5.356;2022-11-14T01:52:26;5.20;75.50
24618;DHT22;12762;51.730;5.356;2022-11-14T01:54:57;5.20;75.60
24618;DHT22;12762;51.730;5.356;2022-11-14T01:57:28;5.20;75.60
24618;DHT22;12762;51.730;5.356;2022-11-14T01:59:59;5.20;75.60
24618;DHT22;12762;51.730;5.356;2022-11-14T02:02:27;5.10;75.50
24618;DHT22;12762;51.730;5.356;2022-11-14T02:05:04;5.10;75.50
24618;DHT22;12762;51.730;5.356;2022-11-14T02:07:35;5.10;75.60
24618;DHT22;12762;51.730;5.356;2022-11-14T02:10:07;5.10;75.60
24618;DHT22;12762;51.730;5.356;2022-11-14T02:12:35;5.10;75.70
24618;DHT22;12762;51.730;5.356;2022-11-14T02:15:03;5.00;75.70
24618;DHT22;12762;51.730;5.356;2022-11-14T02:17:30;5.00;75.70
24618;DHT22;12762;51.730;5.356;2022-11-14T02:22:37;4.90;76.50
24618;DHT22;12762;51.730;5.356;2022-11-14T02:25:06;4.90;75.70
24618;DHT22;12762;51.730;5.356;2022-11-14T02:27:34;4.90;75.60
24618;DHT22;12762;51.730;5.356;2022-11-14T02:30:13;4.90;75.70
24618;DHT22;12762;51.730;5.356;2022-11-14T02:32:41;4.90;75.80
24618;DHT22;12762;51.730;5.356;2022-11-14T02:35:27;4.80;75.60
24618;DHT22;12762;51.730;5.356;2022-11-14T02:37:54;4.80;76.50
24618;DHT22;12762;51.730;5.356;2022-11-14T02:40:21;4.80;75.70
24618;DHT22;12762;51.730;5.356;2022-11-14T02:42:48;4.70;75.60
24618;DHT22;12762;51.730;5.356;2022-11-14T02:45:15;4.70;75.70
24618;DHT22;12762;51.730;5.356;2022-11-14T02:47:41;4.70;75.70
24618;DHT22;12762;51.730;5.356;2022-11-14T02:50:09;4.60;75.80
24618;DHT22;12762;51.730;5.356;2022-11-14T02:52:35;4.60;75.70
24618;DHT22;12762;51.730;5.356;2022-11-14T02:55:03;4.50;75.70
24618;DHT22;12762;51.730;5.356;2022-11-14T02:57:30;4.50;75.70
24618;DHT22;12762;51.730;5.356;2022-11-14T02:59:57;4.50;75.70
24618;DHT22;12762;51.730;5.356;2022-11-14T03:02:24;4.40;75.80
24618;DHT22;12762;51.730;5.356;2022-11-14T03:04:53;4.40;75.80
24618;DHT22;12762;51.730;5.356;2022-11-14T03:07:20;4.30;75.70
24618;DHT22;12762;51.730;5.356;2022-11-14T03:09:50;4.30;75.80
24618;DHT22;12762;51.730;5.356;2022-11-14T03:12:18;4.30;75.80
24618;DHT22;12762;51.730;5.356;2022-11-14T03:14:45;4.30;75.90
24618;DHT22;12762;51.730;5.356;2022-11-14T03:17:12;4.20;75.80
24618;DHT22;12762;51.730;5.356;2022-11-14T03:19:39;4.20;75.80
24618;DHT22;12762;51.730;5.356;2022-11-14T03:22:06;4.20;75.90
24618;DHT22;12762;51.730;5.356;2022-11-14T03:24:32;4.20;76.00
24618;DHT22;12762;51.730;5.356;2022-11-14T03:26:59;4.10;75.90
24618;DHT22;12762;51.730;5.356;2022-11-14T03:29:26;4.10;75.90
24618;DHT22;12762;51.730;5.356;2022-11-14T03:31:53;4.10;76.00
24618;DHT22;12762;51.730;5.356;2022-11-14T03:34:19;4.10;76.00
24618;DHT22;12762;51.730;5.356;2022-11-14T03:36:46;4.10;76.00
24618;DHT22;12762;51.730;5.356;2022-11-14T03:39:13;4.10;76.10
24618;DHT22;12762;51.730;5.356;2022-11-14T03:41:40;4.10;76.10
24618;DHT22;12762;51.730;5.356;2022-11-14T03:44:06;4.00;76.00
24618;DHT22;12762;51.730;5.356;2022-11-14T03:46:33;4.00;76.10
24618;DHT22;12762;51.730;5.356;2022-11-14T03:49:00;4.00;76.10
24618;DHT22;12762;51.730;5.356;2022-11-14T03:51:26;4.00;76.10
24618;DHT22;12762;51.730;5.356;2022-11-14T03:53:53;4.00;76.20
24618;DHT22;12762;51.730;5.356;2022-11-14T03:56:23;4.00;76.20
24618;DHT22;12762;51.730;5.356;2022-11-14T03:58:50;4.00;76.20
24618;DHT22;12762;51.730;5.356;2022-11-14T04:01:16;4.00;76.20
24618;DHT22;12762;51.730;5.356;2022-11-14T04:03:49;4.00;76.20
24618;DHT22;12762;51.730;5.356;2022-11-14T04:06:16;3.90;76.20
24618;DHT22;12762;51.730;5.356;2022-11-14T04:08:42;3.90;76.20
24618;DHT22;12762;51.730;5.356;2022-11-14T04:11:09;3.90;76.20
24618;DHT22;12762;51.730;5.356;2022-11-14T04:13:36;3.90;76.30
24618;DHT22;12762;51.730;5.356;2022-11-14T04:16:03;3.90;76.30
24618;DHT22;12762;51.730;5.356;2022-11-14T04:18:30;3.90;76.30
24618;DHT22;12762;51.730;5.356;2022-11-14T04:21:04;3.80;76.20
24618;DHT22;12762;51.730;5.356;2022-11-14T04:23:31;3.90;76.30
24618;DHT22;12762;51.730;5.356;2022-11-14T04:26:05;3.90;76.30
24618;DHT22;12762;51.730;5.356;2022-11-14T04:28:31;3.80;76.30
24618;DHT22;12762;51.730;5.356;2022-11-14T04:30:58;3.80;76.30
24618;DHT22;12762;51.730;5.356;2022-11-14T04:33:26;3.80;76.40
24618;DHT22;12762;51.730;5.356;2022-11-14T04:35:52;3.80;76.40
24618;DHT22;12762;51.730;5.356;2022-11-14T04:38:19;3.80;76.40
24618;DHT22;12762;51.730;5.356;2022-11-14T04:40:52;3.80;76.40
24618;DHT22;12762;51.730;5.356;2022-11-14T04:43:21;3.80;76.50
24618;DHT22;12762;51.730;5.356;2022-11-14T04:45:48;3.80;76.50
24618;DHT22;12762;51.730;5.356;2022-11-14T04:48:15;3.80;76.50
24618;DHT22;12762;51.730;5.356;2022-11-14T04:50:43;3.80;76.50
24618;DHT22;12762;51.730;5.356;2022-11-14T04:53:13;3.70;76.50
24618;DHT22;12762;51.730;5.356;2022-11-14T04:55:40;3.70;76.50
24618;DHT22;12762;51.730;5.356;2022-11-14T04:58:07;3.70;76.50
24618;DHT22;12762;51.730;5.356;2022-11-14T05:00:35;3.70;76.50
24618;DHT22;12762;51.730;5.356;2022-11-14T05:03:02;3.70;76.50
24618;DHT22;12762;51.730;5.356;2022-11-14T05:05:30;3.70;76.50
24618;DHT22;12762;51.730;5.356;2022-11-14T05:07:57;3.60;76.40
24618;DHT22;12762;51.730;5.356;2022-11-14T05:10:24;3.60;76.50
24618;DHT22;12762;51.730;5.356;2022-11-14T05:12:54;3.60;76.50
24618;DHT22;12762;51.730;5.356;2022-11-14T05:15:21;3.50;76.50
24618;DHT22;12762;51.730;5.356;2022-11-14T05:17:48;3.50;76.50
24618;DHT22;12762;51.730;5.356;2022-11-14T05:20:15;3.50;76.60
24618;DHT22;12762;51.730;5.356;2022-11-14T05:22:42;3.50;76.60
24618;DHT22;12762;51.730;5.356;2022-11-14T05:25:09;3.50;76.70
24618;DHT22;12762;51.730;5.356;2022-11-14T05:27:35;3.40;76.60
24618;DHT22;12762;51.730;5.356;2022-11-14T05:30:03;3.40;76.70
24618;DHT22;12762;51.730;5.356;2022-11-14T05:32:29;3.40;76.70
24618;DHT22;12762;51.730;5.356;2022-11-14T05:34:56;3.40;76.70
24618;DHT22;12762;51.730;5.356;2022-11-14T05:37:23;3.40;76.70
24618;DHT22;12762;51.730;5.356;2022-11-14T05:39:50;3.40;76.70
24618;DHT22;12762;51.730;5.356;2022-11-14T05:42:16;3.40;76.70
24618;DHT22;12762;51.730;5.356;2022-11-14T05:44:43;3.30;76.70
24618;DHT22;12762;51.730;5.356;2022-11-14T05:47:10;3.30;76.80
24618;DHT22;12762;51.730;5.356;2022-11-14T05:49:36;3.30;76.80
24618;DHT22;12762;51.730;5.356;2022-11-14T05:52:03;3.30;76.80
24618;DHT22;12762;51.730;5.356;2022-11-14T05:54:30;3.30;76.90
24618;DHT22;12762;51.730;5.356;2022-11-14T05:56:57;3.30;76.90
24618;DHT22;12762;51.730;5.356;2022-11-14T05:59:23;3.40;76.90
24618;DHT22;12762;51.730;5.356;2022-11-14T06:01:50;3.30;76.80
24618;DHT22;12762;51.730;5.356;2022-11-14T06:04:17;3.30;76.90
24618;DHT22;12762;51.730;5.356;2022-11-14T06:06:44;3.30;76.90
24618;DHT22;12762;51.730;5.356;2022-11-14T06:09:11;3.30;76.90
24618;DHT22;12762;51.730;5.356;2022-11-14T06:11:37;3.30;76.90
24618;DHT22;12762;51.730;5.356;2022-11-14T06:14:09;3.30;76.90
24618;DHT22;12762;51.730;5.356;2022-11-14T06:16:38;3.30;77.00
24618;DHT22;12762;51.730;5.356;2022-11-14T06:19:05;3.30;77.00
24618;DHT22;12762;51.730;5.356;2022-11-14T06:21:32;3.30;77.00
24618;DHT22;12762;51.730;5.356;2022-11-14T06:23:59;3.30;77.90
24618;DHT22;12762;51.730;5.356;2022-11-14T06:26:28;3.30;77.10
24618;DHT22;12762;51.730;5.356;2022-11-14T06:28:59;3.30;77.10
24618;DHT22;12762;51.730;5.356;2022-11-14T06:31:26;3.30;77.20
24618;DHT22;12762;51.730;5.356;2022-11-14T06:33:53;3.30;77.20
24618;DHT22;12762;51.730;5.356;2022-11-14T06:36:20;3.30;77.20
24618;DHT22;12762;51.730;5.356;2022-11-14T06:38:47;3.30;77.10
24618;DHT22;12762;51.730;5.356;2022-11-14T06:41:15;3.30;77.10
24618;DHT22;12762;51.730;5.356;2022-11-14T06:43:45;3.30;77.10
24618;DHT22;12762;51.730;5.356;2022-11-14T06:46:18;3.30;77.20
24618;DHT22;12762;51.730;5.356;2022-11-14T06:48:47;3.30;77.10
24618;DHT22;12762;51.730;5.356;2022-11-14T06:51:15;3.30;77.10
24618;DHT22;12762;51.730;5.356;2022-11-14T06:53:43;3.30;77.20
24618;DHT22;12762;51.730;5.356;2022-11-14T06:56:12;3.30;77.20
24618;DHT22;12762;51.730;5.356;2022-11-14T06:58:41;3.30;77.20
24618;DHT22;12762;51.730;5.356;2022-11-14T07:01:11;3.30;77.20
24618;DHT22;12762;51.730;5.356;2022-11-14T07:03:39;3.30;77.30
24618;DHT22;12762;51.730;5.356;2022-11-14T07:06:07;3.20;78.00
24618;DHT22;12762;51.730;5.356;2022-11-14T07:08:35;3.20;77.20
24618;DHT22;12762;51.730;5.356;2022-11-14T07:11:04;3.30;77.30
24618;DHT22;12762;51.730;5.356;2022-11-14T07:13:32;3.20;77.30
24618;DHT22;12762;51.730;5.356;2022-11-14T07:15:59;3.20;77.20
24618;DHT22;12762;51.730;5.356;2022-11-14T07:18:26;3.20;77.30
24618;DHT22;12762;51.730;5.356;2022-11-14T07:21:05;3.20;77.30
24618;DHT22;12762;51.730;5.356;2022-11-14T07:23:33;3.20;77.30
24618;DHT22;12762;51.730;5.356;2022-11-14T07:26:01;3.20;77.40
24618;DHT22;12762;51.730;5.356;2022-11-14T07:28:29;3.20;77.40
24618;DHT22;12762;51.730;5.356;2022-11-14T07:31:04;3.20;77.50
24618;DHT22;12762;51.730;5.356;2022-11-14T07:33:34;3.30;77.60
24618;DHT22;12762;51.730;5.356;2022-11-14T07:36:01;3.30;77.50
24618;DHT22;12762;51.730;5.356;2022-11-14T07:38:32;3.30;77.50
24618;DHT22;12762;51.730;5.356;2022-11-14T07:41:07;3.30;77.60
24618;DHT22;12762;51.730;5.356;2022-11-14T07:43:35;3.30;77.60
24618;DHT22;12762;51.730;5.356;2022-11-14T07:46:04;3.40;77.60
24618;DHT22;12762;51.730;5.356;2022-11-14T07:48:31;3.40;77.60
24618;DHT22;12762;51.730;5.356;2022-11-14T07:51:00;3.40;77.50
24618;DHT22;12762;51.730;5.356;2022-11-14T07:53:28;3.40;77.60
24618;DHT22;12762;51.730;5.356;2022-11-14T07:56:02;3.50;77.60
24618;DHT22;12762;51.730;5.356;2022-11-14T07:58:29;3.50;77.70
24618;DHT22;12762;51.730;5.356;2022-11-14T08:01:00;3.60;77.70
24618;DHT22;12762;51.730;5.356;2022-11-14T08:03:28;3.60;77.70
24618;DHT22;12762;51.730;5.356;2022-11-14T08:06:04;3.60;77.70
24618;DHT22;12762;51.730;5.356;2022-11-14T08:08:32;3.70;77.90
24618;DHT22;12762;51.730;5.356;2022-11-14T08:10:59;3.70;77.80
24618;DHT22;12762;51.730;5.356;2022-11-14T08:13:32;3.70;77.80
24618;DHT22;12762;51.730;5.356;2022-11-14T08:16:06;4.00;78.50
24618;DHT22;12762;51.730;5.356;2022-11-14T08:18:39;4.90;79.80
24618;DHT22;12762;51.730;5.356;2022-11-14T08:21:08;6.20;80.10
24618;DHT22;12762;51.730;5.356;2022-11-14T08:23:35;7.50;79.30
24618;DHT22;12762;51.730;5.356;2022-11-14T08:26:02;8.60;78.10
24618;DHT22;12762;51.730;5.356;2022-11-14T08:28:28;9.60;76.80
24618;DHT22;12762;51.730;5.356;2022-11-14T08:31:00;10.50;74.40
24618;DHT22;12762;51.730;5.356;2022-11-14T08:33:28;11.30;72.90
24618;DHT22;12762;51.730;5.356;2022-11-14T08:35:55;12.00;71.60
24618;DHT22;12762;51.730;5.356;2022-11-14T08:38:21;12.50;70.40
24618;DHT22;12762;51.730;5.356;2022-11-14T08:40:48;13.00;69.30
24618;DHT22;12762;51.730;5.356;2022-11-14T08:43:15;13.30;68.10
24618;DHT22;12762;51.730;5.356;2022-11-14T08:45:42;13.50;67.30
24618;DHT22;12762;51.730;5.356;2022-11-14T08:48:09;13.50;66.50
24618;DHT22;12762;51.730;5.356;2022-11-14T08:50:36;13.10;65.80
24618;DHT22;12762;51.730;5.356;2022-11-14T08:53:03;12.50;65.90
24618;DHT22;12762;51.730;5.356;2022-11-14T08:55:30;11.80;66.10
24618;DHT22;12762;51.730;5.356;2022-11-14T08:57:57;11.20;66.50
24618;DHT22;12762;51.730;5.356;2022-11-14T09:00:24;10.70;67.30
24618;DHT22;12762;51.730;5.356;2022-11-14T09:02:50;10.30;68.00
24618;DHT22;12762;51.730;5.356;2022-11-14T09:05:17;9.90;69.80
24618;DHT22;12762;51.730;5.356;2022-11-14T09:07:44;9.60;70.50
24618;DHT22;12762;51.730;5.356;2022-11-14T09:10:11;9.40;71.20
24618;DHT22;12762;51.730;5.356;2022-11-14T09:12:38;9.30;71.90
24618;DHT22;12762;51.730;5.356;2022-11-14T09:15:05;9.10;72.20
24618;DHT22;12762;51.730;5.356;2022-11-14T09:17:32;9.10;72.70
24618;DHT22;12762;51.730;5.356;2022-11-14T09:19:59;9.00;73.10
24618;DHT22;12762;51.730;5.356;2022-11-14T09:22:25;9.00;73.40
24618;DHT22;12762;51.730;5.356;2022-11-14T09:24:52;9.00;73.80
24618;DHT22;12762;51.730;5.356;2022-11-14T09:27:19;9.00;73.90
24618;DHT22;12762;51.730;5.356;2022-11-14T09:29:46;9.00;74.10
24618;DHT22;12762;51.730;5.356;2022-11-14T09:32:13;9.10;74.40
24618;DHT22;12762;51.730;5.356;2022-11-14T09:34:41;9.00;74.40
24618;DHT22;12762;51.730;5.356;2022-11-14T09:37:10;9.10;74.70
24618;DHT22;12762;51.730;5.356;2022-11-14T09:39:37;9.20;74.80
24618;DHT22;12762;51.730;5.356;2022-11-14T09:42:25;9.30;74.90
24618;DHT22;12762;51.730;5.356;2022-11-14T09:45:02;9.30;74.80
24618;DHT22;12762;51.730;5.356;2022-11-14T09:47:44;9.30;74.70
24618;DHT22;12762;51.730;5.356;2022-11-14T09:50:32;9.30;74.70
24618;DHT22;12762;51.730;5.356;2022-11-14T09:53:08;9.30;74.90
24618;DHT22;12762;51.730;5.356;2022-11-14T09:55:36;9.30;74.90
24618;DHT22;12762;51.730;5.356;2022-11-14T09:58:04;9.30;74.90
24618;DHT22;12762;51.730;5.356;2022-11-14T10:00:57;9.40;75.00
24618;DHT22;12762;51.730;5.356;2022-11-14T10:03:52;9.50;75.00
24618;DHT22;12762;51.730;5.356;2022-11-14T10:06:32;9.50;74.80
24618;DHT22;12762;51.730;5.356;2022-11-14T10:23:19;10.10;74.00
24618;DHT22;12762;51.730;5.356;2022-11-14T10:31:50;10.30;73.60
24618;DHT22;12762;51.730;5.356;2022-11-14T10:34:29;10.30;73.70
24618;DHT22;12762;51.730;5.356;2022-11-14T10:37:09;10.40;73.60
24618;DHT22;12762;51.730;5.356;2022-11-14T10:39:48;10.50;73.40
24618;DHT22;12762;51.730;5.356;2022-11-14T10:42:29;10.50;73.30
24618;DHT22;12762;51.730;5.356;2022-11-14T10:45:02;10.50;73.40
24618;DHT22;12762;51.730;5.356;2022-11-14T10:47:36;10.50;73.30
24618;DHT22;12762;51.730;5.356;2022-11-14T10:50:19;10.50;73.10
24618;DHT22;12762;51.730;5.356;2022-11-14T10:52:47;10.60;73.10
24618;DHT22;12762;51.730;5.356;2022-11-14T10:55:18;10.60;73.20
24618;DHT22;12762;51.730;5.356;2022-11-14T10:58:09;10.70;73.40
24618;DHT22;12762;51.730;5.356;2022-11-14T11:00:36;10.80;73.40
24618;DHT22;12762;51.730;5.356;2022-11-14T11:03:06;10.90;73.40
24618;DHT22;12762;51.730;5.356;2022-11-14T11:05:50;11.00;73.40
24618;DHT22;12762;51.730;5.356;2022-11-14T11:08:19;11.10;73.20
24618;DHT22;12762;51.730;5.356;2022-11-14T11:11:13;11.10;73.10
24618;DHT22;12762;51.730;5.356;2022-11-14T11:13:59;11.20;73.10
24618;DHT22;12762;51.730;5.356;2022-11-14T11:16:27;11.20;73.00
24618;DHT22;12762;51.730;5.356;2022-11-14T11:19:24;11.30;72.90
24618;DHT22;12762;51.730;5.356;2022-11-14T11:21:51;11.30;72.90
24618;DHT22;12762;51.730;5.356;2022-11-14T11:24:32;11.40;72.80
24618;DHT22;12762;51.730;5.356;2022-11-14T11:27:13;11.40;72.70
24618;DHT22;12762;51.730;5.356;2022-11-14T11:32:32;11.20;72.30
24618;DHT22;12762;51.730;5.356;2022-11-14T11:35:02;11.20;72.70
24618;DHT22;12762;51.730;5.356;2022-11-14T11:37:44;11.30;72.90
24618;DHT22;12762;51.730;5.356;2022-11-14T11:40:23;11.40;72.90
24618;DHT22;12762;51.730;5.356;2022-11-14T11:43:03;11.50;72.80
24618;DHT22;12762;51.730;5.356;2022-11-14T11:45:56;11.60;73.00
24618;DHT22;12762;51.730;5.356;2022-11-14T11:48:38;11.70;72.70
24618;DHT22;12762;51.730;5.356;2022-11-14T11:51:11;11.60;72.40
24618;DHT22;12762;51.730;5.356;2022-11-14T11:53:42;11.70;72.40
24618;DHT22;12762;51.730;5.356;2022-11-14T11:56:24;11.80;72.60
24618;DHT22;12762;51.730;5.356;2022-11-14T11:59:02;11.80;72.40
24618;DHT22;12762;51.730;5.356;2022-11-14T12:01:29;11.80;72.20
24618;DHT22;12762;51.730;5.356;2022-11-14T12:03:56;11.80;72.40
24618;DHT22;12762;51.730;5.356;2022-11-14T12:06:25;11.80;72.40
24618;DHT22;12762;51.730;5.356;2022-11-14T12:11:26;11.80;72.10
24618;DHT22;12762;51.730;5.356;2022-11-14T12:19:24;12.00;72.40
24618;DHT22;12762;51.730;5.356;2022-11-14T12:30:22;12.00;72.00
24618;DHT22;12762;51.730;5.356;2022-11-14T12:36:00;11.70;71.70
24618;DHT22;12762;51.730;5.356;2022-11-14T12:38:39;11.60;71.90
24618;DHT22;12762;51.730;5.356;2022-11-14T12:41:08;11.60;72.30
24618;DHT22;12762;51.730;5.356;2022-11-14T12:43:41;11.50;72.20
24618;DHT22;12762;51.730;5.356;2022-11-14T12:46:10;11.30;72.00
24618;DHT22;12762;51.730;5.356;2022-11-14T12:49:01;11.20;72.30
24618;DHT22;12762;51.730;5.356;2022-11-14T12:53:57;11.10;72.60
24618;DHT22;12762;51.730;5.356;2022-11-14T12:59:25;10.90;72.40
24618;DHT22;12762;51.730;5.356;2022-11-14T13:05:41;10.80;72.70
24618;DHT22;12762;51.730;5.356;2022-11-14T13:11:35;10.80;72.90
24618;DHT22;12762;51.730;5.356;2022-11-14T13:14:23;10.90;73.20
24618;DHT22;12762;51.730;5.356;2022-11-14T13:20:21;10.80;72.70
24618;DHT22;12762;51.730;5.356;2022-11-14T13:28:44;10.50;72.90
24618;DHT22;12762;51.730;5.356;2022-11-14T13:33:42;10.60;73.30
24618;DHT22;12762;51.730;5.356;2022-11-14T13:36:17;10.50;73.10
24618;DHT22;12762;51.730;5.356;2022-11-14T13:41:43;10.50;73.30
24618;DHT22;12762;51.730;5.356;2022-11-14T13:44:34;10.50;73.30
24618;DHT22;12762;51.730;5.356;2022-11-14T13:47:24;10.60;73.20
24618;DHT22;12762;51.730;5.356;2022-11-14T13:52:30;10.70;73.40
24618;DHT22;12762;51.730;5.356;2022-11-14T13:54:58;10.70;73.20
24618;DHT22;12762;51.730;5.356;2022-11-14T13:57:38;10.80;73.60
24618;DHT22;12762;51.730;5.356;2022-11-14T14:03:27;11.40;73.90
24618;DHT22;12762;51.730;5.356;2022-11-14T14:06:25;11.90;73.90
24618;DHT22;12762;51.730;5.356;2022-11-14T14:11:44;12.30;71.90
24618;DHT22;12762;51.730;5.356;2022-11-14T14:22:55;11.50;71.10
24618;DHT22;12762;51.730;5.356;2022-11-14T14:25:51;11.30;71.20
24618;DHT22;12762;51.730;5.356;2022-11-14T14:31:40;11.00;71.50
24618;DHT22;12762;51.730;5.356;2022-11-14T14:34:26;10.80;71.60
24618;DHT22;12762;51.730;5.356;2022-11-14T14:36:54;10.70;71.80
24618;DHT22;12762;51.730;5.356;2022-11-14T14:39:24;10.60;71.90
24618;DHT22;12762;51.730;5.356;2022-11-14T14:41:55;10.50;72.10
24618;DHT22;12762;51.730;5.356;2022-11-14T14:44:38;10.40;72.20
24618;DHT22;12762;51.730;5.356;2022-11-14T14:47:40;10.30;72.30
24618;DHT22;12762;51.730;5.356;2022-11-14T14:50:16;10.30;72.40
24618;DHT22;12762;51.730;5.356;2022-11-14T14:52:43;10.20;72.40
24618;DHT22;12762;51.730;5.356;2022-11-14T14:55:26;10.10;72.60
24618;DHT22;12762;51.730;5.356;2022-11-14T14:57:54;10.10;72.60
24618;DHT22;12762;51.730;5.356;2022-11-14T15:00:24;10.00;72.60
24618;DHT22;12762;51.730;5.356;2022-11-14T15:02:53;10.00;72.70
24618;DHT22;12762;51.730;5.356;2022-11-14T15:05:25;9.90;73.80
24618;DHT22;12762;51.730;5.356;2022-11-14T15:07:59;9.90;73.90
24618;DHT22;12762;51.730;5.356;2022-11-14T15:10:28;9.80;73.90
24618;DHT22;12762;51.730;5.356;2022-11-14T15:12:57;9.90;74.20
24618;DHT22;12762;51.730;5.356;2022-11-14T15:15:27;9.80;74.10
24618;DHT22;12762;51.730;5.356;2022-11-14T15:17:56;9.80;74.20
24618;DHT22;12762;51.730;5.356;2022-11-14T15:20:27;9.70;74.20
24618;DHT22;12762;51.730;5.356;2022-11-14T15:25:36;9.60;74.20
24618;DHT22;12762;51.730;5.356;2022-11-14T15:28:11;9.60;74.30
24618;DHT22;12762;51.730;5.356;2022-11-14T15:30:38;9.50;74.30
24618;DHT22;12762;51.730;5.356;2022-11-14T15:33:27;9.50;74.50
24618;DHT22;12762;51.730;5.356;2022-11-14T15:36:13;9.40;74.40
24618;DHT22;12762;51.730;5.356;2022-11-14T15:39:00;9.30;74.40
24618;DHT22;12762;51.730;5.356;2022-11-14T15:41:28;9.30;74.50
24618;DHT22;12762;51.730;5.356;2022-11-14T15:43:57;9.30;74.60
24618;DHT22;12762;51.730;5.356;2022-11-14T15:46:42;9.20;74.70
24618;DHT22;12762;51.730;5.356;2022-11-14T15:49:25;9.10;74.70
24618;DHT22;12762;51.730;5.356;2022-11-14T15:52:02;9.00;74.60
24618;DHT22;12762;51.730;5.356;2022-11-14T15:54:31;9.00;74.80
24618;DHT22;12762;51.730;5.356;2022-11-14T15:57:10;9.00;74.90
24618;DHT22;12762;51.730;5.356;2022-11-14T15:59:37;8.90;74.90
24618;DHT22;12762;51.730;5.356;2022-11-14T16:02:17;8.80;74.90
24618;DHT22;12762;51.730;5.356;2022-11-14T16:04:45;8.80;75.10
24618;DHT22;12762;51.730;5.356;2022-11-14T16:07:15;8.70;75.10
24618;DHT22;12762;51.730;5.356;2022-11-14T16:09:42;8.70;75.20
24618;DHT22;12762;51.730;5.356;2022-11-14T16:12:09;8.70;76.00
24618;DHT22;12762;51.730;5.356;2022-11-14T16:14:36;8.60;75.30
24618;DHT22;12762;51.730;5.356;2022-11-14T16:17:14;8.60;75.40
24618;DHT22;12762;51.730;5.356;2022-11-14T16:19:41;8.50;75.40
24618;DHT22;12762;51.730;5.356;2022-11-14T16:22:11;8.50;75.50
24618;DHT22;12762;51.730;5.356;2022-11-14T16:24:38;8.50;75.60
24618;DHT22;12762;51.730;5.356;2022-11-14T16:27:05;8.40;75.50
24618;DHT22;12762;51.730;5.356;2022-11-14T16:29:32;8.40;75.50
24618;DHT22;12762;51.730;5.356;2022-11-14T16:31:59;8.30;75.50
24618;DHT22;12762;51.730;5.356;2022-11-14T16:34:26;8.30;75.50
24618;DHT22;12762;51.730;5.356;2022-11-14T16:36:58;8.30;75.50
24618;DHT22;12762;51.730;5.356;2022-11-14T16:39:25;8.20;75.50
24618;DHT22;12762;51.730;5.356;2022-11-14T16:41:52;8.20;75.60
24618;DHT22;12762;51.730;5.356;2022-11-14T16:44:19;8.10;75.50
24618;DHT22;12762;51.730;5.356;2022-11-14T16:46:49;8.00;75.40
24618;DHT22;12762;51.730;5.356;2022-11-14T16:49:19;7.90;75.50
24618;DHT22;12762;51.730;5.356;2022-11-14T16:51:47;7.90;75.60
24618;DHT22;12762;51.730;5.356;2022-11-14T16:54:19;7.80;75.60
24618;DHT22;12762;51.730;5.356;2022-11-14T16:56:47;7.80;75.70
24618;DHT22;12762;51.730;5.356;2022-11-14T16:59:13;7.70;75.60
24618;DHT22;12762;51.730;5.356;2022-11-14T17:01:41;7.60;75.50
24618;DHT22;12762;51.730;5.356;2022-11-14T17:04:10;7.60;75.60
24618;DHT22;12762;51.730;5.356;2022-11-14T17:06:38;7.50;75.60
24618;DHT22;12762;51.730;5.356;2022-11-14T17:09:05;7.50;75.70
24618;DHT22;12762;51.730;5.356;2022-11-14T17:11:31;7.40;75.60
24618;DHT22;12762;51.730;5.356;2022-11-14T17:13:58;7.40;75.80
24618;DHT22;12762;51.730;5.356;2022-11-14T17:16:28;7.30;75.80
24618;DHT22;12762;51.730;5.356;2022-11-14T17:18:55;7.30;75.90
24618;DHT22;12762;51.730;5.356;2022-11-14T17:21:22;7.30;76.00
24618;DHT22;12762;51.730;5.356;2022-11-14T17:24:00;7.20;76.00
24618;DHT22;12762;51.730;5.356;2022-11-14T17:26:27;7.20;76.10
24618;DHT22;12762;51.730;5.356;2022-11-14T17:28:54;7.20;76.10
24618;DHT22;12762;51.730;5.356;2022-11-14T17:31:21;7.10;76.00
24618;DHT22;12762;51.730;5.356;2022-11-14T17:33:52;7.10;76.00
24618;DHT22;12762;51.730;5.356;2022-11-14T17:36:20;7.10;76.10
24618;DHT22;12762;51.730;5.356;2022-11-14T17:38:48;7.10;76.20